Time;durP1;ratioP1;P1;durP2;ratioP2;P2;SDS_P1;SDS_P2;PMS_P1;PMS_P2;Temp;Humidity;BMP_temperature;BMP_pressure;BME280_temperature;BME280_humidity;BME280_pressure;Samples;Min_cycle;Max_cycle;Signal;HPM_P1;HPM_P2
2021/06/04 00:00:32;;;;;;;528.35;454.17;;;;;;;;;;5028586;28;20366;-79
2021/06/04 00:03:00;;;;;;;535.70;455.30;;;;;;;;;;5028882;28;20408;-79
2021/06/04 00:05:29;;;;;;;534.25;453.35;;;;;;;;;;5029308;28;20033;-79
2021/06/04 00:07:55;;;;;;;548.90;476.83;;;;;;;;;;5029031;28;20033;-78
2021/06/04 00:10:43;;;;;;;535.53;460.73;;;;;;;;;;5027835;28;20029;-79
2021/06/04 00:13:21;;;;;;;528.83;454.13;;;;;;;;;;5029427;28;20137;-79
2021/06/04 00:15:48;;;;;;;526.90;445.73;;;;;;;;;;5028301;28;20033;-79
2021/06/04 00:18:14;;;;;;;527.63;450.50;;;;;;;;;;5026952;28;20432;-79
2021/06/04 00:20:40;;;;;;;531.00;456.58;;;;;;;;;;5026260;28;20045;-79
2021/06/04 00:23:15;;;;;;;526.40;447.58;;;;;;;;;;5027785;28;20422;-79
2021/06/04 00:25:41;;;;;;;521.13;442.63;;;;;;;;;;5025215;28;20142;-79
2021/06/04 00:28:07;;;;;;;531.17;449.08;;;;;;;;;;5029351;28;20045;-79
2021/06/04 00:30:33;;;;;;;527.08;448.35;;;;;;;;;;5027606;28;20037;-78
2021/06/04 00:32:59;;;;;;;531.83;454.08;;;;;;;;;;5021828;28;20021;-78
2021/06/04 00:35:31;;;;;;;525.58;446.85;;;;;;;;;;5027310;28;20025;-79
2021/06/04 00:37:57;;;;;;;536.28;456.50;;;;;;;;;;5025780;28;20045;-78
2021/06/04 00:40:26;;;;;;;543.50;465.27;;;;;;;;;;5027466;28;20033;-78
2021/06/04 00:42:52;;;;;;;539.83;454.08;;;;;;;;;;5027131;28;20459;-78
2021/06/04 00:45:20;;;;;;;542.42;463.00;;;;;;;;;;5027924;28;20382;-78
2021/06/04 00:47:46;;;;;;;534.55;455.98;;;;;;;;;;5025636;28;20508;-78
2021/06/04 00:50:15;;;;;;;529.53;448.98;;;;;;;;;;5031700;28;20026;-78
2021/06/04 00:52:41;;;;;;;532.72;453.33;;;;;;;;;;5022196;28;20768;-78
2021/06/04 00:55:09;;;;;;;531.15;452.63;;;;;;;;;;5032746;28;20022;-78
2021/06/04 00:57:42;;;;;;;528.85;450.92;;;;;;;;;;5031530;28;20092;-79
2021/06/04 01:00:11;;;;;;;526.92;441.02;;;;;;;;;;5033277;28;20380;-79
2021/06/04 01:02:37;;;;;;;534.05;456.83;;;;;;;;;;5028006;28;20017;-78
2021/06/04 01:05:05;;;;;;;534.78;454.88;;;;;;;;;;5026490;28;20232;-79
2021/06/04 01:07:34;;;;;;;537.50;458.17;;;;;;;;;;5031625;28;20021;-78
2021/06/04 01:10:18;;;;;;;535.17;454.50;;;;;;;;;;5044066;28;20060;-78
2021/06/04 01:12:52;;;;;;;560.05;458.88;;;;;;;;;;5031503;28;20091;-78
2021/06/04 01:15:28;;;;;;;541.90;466.48;;;;;;;;;;5047132;28;20049;-78
2021/06/04 01:18:19;;;;;;;535.47;454.30;;;;;;;;;;5028470;28;20877;-79
2021/06/04 01:20:47;;;;;;;540.13;456.95;;;;;;;;;;5031424;28;20030;-78
2021/06/04 01:23:13;;;;;;;546.50;466.63;;;;;;;;;;5031681;28;20065;-78
2021/06/04 01:25:56;;;;;;;544.38;464.80;;;;;;;;;;5030862;28;20437;-78
2021/06/04 01:28:43;;;;;;;534.17;451.70;;;;;;;;;;5028304;28;20029;-78
2021/06/04 01:31:21;;;;;;;538.65;456.45;;;;;;;;;;5028859;28;20022;-79
2021/06/04 01:33:57;;;;;;;542.90;457.45;;;;;;;;;;5030746;28;20037;-78
2021/06/04 01:36:25;;;;;;;534.05;447.30;;;;;;;;;;5031649;28;20127;-78
2021/06/04 01:38:51;;;;;;;535.35;448.67;;;;;;;;;;5031683;28;20429;-78
2021/06/04 01:41:20;;;;;;;540.35;458.13;;;;;;;;;;5032631;28;20641;-79
2021/06/04 01:43:51;;;;;;;533.28;448.55;;;;;;;;;;5033389;28;20724;-78
2021/06/04 01:46:37;;;;;;;535.90;446.90;;;;;;;;;;5031274;28;20063;-78
2021/06/04 01:52:23;;;;;;;527.83;433.02;;;;;;;;;;5033767;28;20224;-78
2021/06/04 01:54:52;;;;;;;534.55;444.75;;;;;;;;;;5031837;28;20041;-78
2021/06/04 01:57:22;;;;;;;534.90;443.35;;;;;;;;;;5032341;28;20036;-78
2021/06/04 01:59:51;;;;;;;533.22;445.73;;;;;;;;;;5032267;28;20033;-78
2021/06/04 02:02:42;;;;;;;533.00;439.07;;;;;;;;;;5027436;28;20025;-78
2021/06/04 02:05:09;;;;;;;564.85;467.40;;;;;;;;;;5045920;28;20264;-78
2021/06/04 02:07:35;;;;;;;540.78;451.63;;;;;;;;;;5029881;28;20030;-78
2021/06/04 02:10:03;;;;;;;530.95;442.75;;;;;;;;;;5023918;28;20465;-77
2021/06/04 02:12:30;;;;;;;528.92;438.40;;;;;;;;;;5028102;28;20034;-78
2021/06/04 02:15:28;;;;;;;535.97;443.73;;;;;;;;;;5027317;28;20026;-77
2021/06/04 02:18:06;;;;;;;530.00;431.77;;;;;;;;;;5002915;28;20045;-78
2021/06/04 02:20:39;;;;;;;525.70;430.95;;;;;;;;;;5032008;28;20040;-77
2021/06/04 02:23:26;;;;;;;523.10;428.13;;;;;;;;;;5029800;28;20492;-78
2021/06/04 02:26:29;;;;;;;522.92;426.42;;;;;;;;;;5029854;28;20109;-77
2021/06/04 02:29:18;;;;;;;521.88;424.65;;;;;;;;;;5047640;28;20025;-77
2021/06/04 02:31:46;;;;;;;517.75;419.77;;;;;;;;;;5022892;28;20041;-78
2021/06/04 02:34:28;;;;;;;514.58;421.40;;;;;;;;;;5030110;28;20022;-78
2021/06/04 02:37:29;;;;;;;525.85;427.95;;;;;;;;;;5028664;28;20029;-77
2021/06/04 02:40:08;;;;;;;518.15;413.38;;;;;;;;;;4973065;28;20073;-78
2021/06/04 02:42:41;;;;;;;515.08;415.65;;;;;;;;;;5017340;28;20099;-77
2021/06/04 02:45:11;;;;;;;515.15;416.80;;;;;;;;;;5045270;28;20029;-77
2021/06/04 02:47:42;;;;;;;509.75;409.83;;;;;;;;;;5025869;28;20025;-78
2021/06/04 02:50:15;;;;;;;511.58;415.27;;;;;;;;;;5028045;28;20035;-77
2021/06/04 02:52:42;;;;;;;511.00;412.92;;;;;;;;;;5030869;28;20603;-77
2021/06/04 02:55:16;;;;;;;509.48;408.15;;;;;;;;;;5030926;28;20030;-76
2021/06/04 02:57:42;;;;;;;511.70;413.35;;;;;;;;;;5023323;28;20036;-77
2021/06/04 03:00:16;;;;;;;514.70;418.73;;;;;;;;;;5029707;28;20095;-76
2021/06/04 03:02:42;;;;;;;510.88;413.42;;;;;;;;;;5029553;28;20075;-77
2021/06/04 03:05:12;;;;;;;511.15;411.27;;;;;;;;;;5026645;28;20535;-76
2021/06/04 03:07:40;;;;;;;510.13;408.60;;;;;;;;;;5030844;28;20103;-77
2021/06/04 03:10:21;;;;;;;512.38;410.67;;;;;;;;;;5043302;28;20053;-77
2021/06/04 03:12:48;;;;;;;512.10;414.95;;;;;;;;;;5041059;28;20032;-77
2021/06/04 03:15:36;;;;;;;512.65;411.15;;;;;;;;;;5029076;28;20032;-77
2021/06/04 03:18:03;;;;;;;517.75;417.58;;;;;;;;;;5027295;28;20037;-77
2021/06/04 03:20:31;;;;;;;518.58;418.42;;;;;;;;;;5029910;28;20040;-77
2021/06/04 03:22:58;;;;;;;520.67;420.23;;;;;;;;;;5030178;28;20029;-77
2021/06/04 03:25:25;;;;;;;513.38;415.10;;;;;;;;;;5028875;28;20044;-77
2021/06/04 03:27:53;;;;;;;516.75;413.45;;;;;;;;;;5025863;28;20037;-78
2021/06/04 03:30:23;;;;;;;517.25;410.15;;;;;;;;;;5030166;28;20053;-77
2021/06/04 03:32:49;;;;;;;530.25;411.35;;;;;;;;;;5028505;28;20036;-77
2021/06/04 03:35:16;;;;;;;523.55;420.13;;;;;;;;;;5043963;28;20039;-77
2021/06/04 03:37:43;;;;;;;517.45;415.08;;;;;;;;;;5030074;28;20072;-78
2021/06/04 03:40:11;;;;;;;518.63;416.15;;;;;;;;;;5032915;28;20037;-77
2021/06/04 03:42:37;;;;;;;523.78;418.20;;;;;;;;;;5034756;28;20392;-78
2021/06/04 03:45:04;;;;;;;526.78;421.40;;;;;;;;;;5032247;28;20025;-78
2021/06/04 03:47:30;;;;;;;525.90;420.75;;;;;;;;;;5045804;28;20124;-78
2021/06/04 03:49:56;;;;;;;513.35;415.83;;;;;;;;;;5033547;28;20108;-77
2021/06/04 03:52:24;;;;;;;516.28;413.42;;;;;;;;;;5033670;28;20112;-78
2021/06/04 03:54:52;;;;;;;520.03;415.30;;;;;;;;;;5030772;28;20827;-78
2021/06/04 03:57:20;;;;;;;517.22;418.45;;;;;;;;;;5031416;28;20096;-78
2021/06/04 03:59:47;;;;;;;512.72;411.27;;;;;;;;;;5051233;28;20078;-77
2021/06/04 04:02:15;;;;;;;517.25;413.67;;;;;;;;;;5033858;28;20043;-77
2021/06/04 04:04:59;;;;;;;514.03;417.27;;;;;;;;;;5047061;28;20032;-78
2021/06/04 04:07:28;;;;;;;518.30;414.20;;;;;;;;;;5029563;28;20655;-77
2021/06/04 04:09:54;;;;;;;519.38;421.42;;;;;;;;;;5050795;28;20048;-78
2021/06/04 04:12:20;;;;;;;519.15;414.35;;;;;;;;;;5033413;28;20296;-78
2021/06/04 04:14:46;;;;;;;516.92;414.98;;;;;;;;;;5030794;28;20025;-78
2021/06/04 04:17:18;;;;;;;517.63;413.77;;;;;;;;;;5030382;28;20032;-77
2021/06/04 04:19:44;;;;;;;513.90;412.40;;;;;;;;;;5033112;28;20043;-77
2021/06/04 04:22:10;;;;;;;523.75;419.67;;;;;;;;;;5047583;28;20060;-78
2021/06/04 04:24:37;;;;;;;526.35;420.77;;;;;;;;;;5032208;28;20457;-77
2021/06/04 04:27:04;;;;;;;560.72;448.67;;;;;;;;;;5050940;28;20492;-77
2021/06/04 04:29:50;;;;;;;531.15;427.50;;;;;;;;;;5026049;28;20032;-77
2021/06/04 04:32:16;;;;;;;520.83;412.88;;;;;;;;;;5033027;28;20024;-77
2021/06/04 04:34:43;;;;;;;511.30;407.52;;;;;;;;;;5030639;28;20029;-77
2021/06/04 04:37:10;;;;;;;513.78;414.52;;;;;;;;;;5050907;28;20092;-77
2021/06/04 04:39:38;;;;;;;514.92;415.10;;;;;;;;;;5050292;28;20575;-77
2021/06/04 04:45:09;;;;;;;517.22;410.33;;;;;;;;;;5045224;28;20036;-76
2021/06/04 04:47:35;;;;;;;516.80;415.88;;;;;;;;;;5049230;28;20029;-76
2021/06/04 04:50:01;;;;;;;518.78;424.05;;;;;;;;;;5049222;28;20103;-76
2021/06/04 04:52:27;;;;;;;513.05;413.45;;;;;;;;;;5032751;28;20915;-76
2021/06/04 04:55:06;;;;;;;517.28;415.88;;;;;;;;;;5046908;28;20401;-76
2021/06/04 04:57:32;;;;;;;521.53;422.70;;;;;;;;;;5050049;28;20028;-76
2021/06/04 04:59:58;;;;;;;521.80;426.63;;;;;;;;;;5036927;28;20026;-76
2021/06/04 05:02:24;;;;;;;521.15;426.60;;;;;;;;;;5030407;28;20519;-75
2021/06/04 05:04:51;;;;;;;564.88;465.50;;;;;;;;;;5031369;28;20102;-75
2021/06/04 05:07:32;;;;;;;589.70;489.23;;;;;;;;;;5049140;28;20051;-76
2021/06/04 05:09:58;;;;;;;594.10;492.73;;;;;;;;;;5046737;28;20037;-77
2021/06/04 05:12:24;;;;;;;558.60;460.15;;;;;;;;;;5048881;28;20025;-76
2021/06/04 05:14:50;;;;;;;571.58;477.65;;;;;;;;;;5048632;28;20021;-76
2021/06/04 05:17:17;;;;;;;542.55;452.75;;;;;;;;;;5029078;28;20040;-75
2021/06/04 05:19:47;;;;;;;547.75;459.42;;;;;;;;;;5030794;28;20394;-75
2021/06/04 05:22:14;;;;;;;584.47;495.15;;;;;;;;;;5044601;28;21007;-75
2021/06/04 05:24:40;;;;;;;546.17;455.55;;;;;;;;;;5047162;28;20159;-75
2021/06/04 05:27:06;;;;;;;524.72;438.27;;;;;;;;;;5032341;28;20099;-76
2021/06/04 05:29:32;;;;;;;526.00;435.58;;;;;;;;;;5032135;28;20056;-76
2021/06/04 05:31:59;;;;;;;530.30;445.63;;;;;;;;;;5049864;28;20079;-76
2021/06/04 05:34:25;;;;;;;530.42;444.45;;;;;;;;;;5032523;28;20441;-76
2021/06/04 05:36:51;;;;;;;529.30;444.42;;;;;;;;;;5052622;28;20074;-76
2021/06/04 05:39:20;;;;;;;530.03;449.05;;;;;;;;;;5036284;28;20070;-75
2021/06/04 05:41:54;;;;;;;531.05;451.90;;;;;;;;;;5033536;28;20476;-75
2021/06/04 05:44:21;;;;;;;529.40;443.35;;;;;;;;;;5050276;28;20104;-75
2021/06/04 05:46:49;;;;;;;531.95;454.40;;;;;;;;;;5031646;28;20029;-77
2021/06/04 05:49:17;;;;;;;528.40;439.83;;;;;;;;;;5034246;28;20036;-75
2021/06/04 05:51:43;;;;;;;531.83;453.38;;;;;;;;;;5033942;28;20263;-76
2021/06/04 05:54:09;;;;;;;533.72;454.58;;;;;;;;;;5052124;28;20380;-76
2021/06/04 05:56:35;;;;;;;530.20;447.20;;;;;;;;;;5051636;28;20047;-75
2021/06/04 05:59:01;;;;;;;540.70;460.20;;;;;;;;;;5029269;28;20032;-75
2021/06/04 06:01:32;;;;;;;536.25;454.05;;;;;;;;;;5052456;28;20117;-76
2021/06/04 06:03:58;;;;;;;536.00;459.98;;;;;;;;;;5033215;28;20025;-76
2021/06/04 06:06:24;;;;;;;534.00;457.52;;;;;;;;;;5035052;28;20037;-76
2021/06/04 06:08:50;;;;;;;537.28;463.38;;;;;;;;;;5035558;28;20029;-76
2021/06/04 06:11:21;;;;;;;535.42;458.33;;;;;;;;;;5036565;28;20025;-75
2021/06/04 06:13:57;;;;;;;540.78;463.80;;;;;;;;;;5046089;28;20021;-75
2021/06/04 06:16:23;;;;;;;543.70;470.42;;;;;;;;;;5050810;28;20025;-76
2021/06/04 06:18:49;;;;;;;538.70;468.30;;;;;;;;;;5046581;28;20821;-76
2021/06/04 06:21:16;;;;;;;542.47;473.85;;;;;;;;;;5052933;28;20063;-76
2021/06/04 06:23:42;;;;;;;547.50;480.05;;;;;;;;;;5031148;28;20625;-76
2021/06/04 06:26:15;;;;;;;543.70;475.88;;;;;;;;;;5039081;28;20020;-75
2021/06/04 06:28:41;;;;;;;544.38;477.17;;;;;;;;;;5036031;28;20032;-75
2021/06/04 06:31:11;;;;;;;545.72;477.83;;;;;;;;;;5028023;28;20028;-75
2021/06/04 06:33:37;;;;;;;548.90;483.42;;;;;;;;;;5034553;28;20033;-76
2021/06/04 06:36:05;;;;;;;557.80;492.23;;;;;;;;;;5033321;28;20040;-76
2021/06/04 06:38:31;;;;;;;553.92;491.85;;;;;;;;;;5031493;28;20136;-76
2021/06/04 06:40:58;;;;;;;548.35;485.90;;;;;;;;;;5025932;28;20043;-75
2021/06/04 06:43:27;;;;;;;546.35;479.88;;;;;;;;;;5052326;28;20033;-75
2021/06/04 06:45:58;;;;;;;538.20;475.53;;;;;;;;;;5049762;28;20384;-75
2021/06/04 06:48:25;;;;;;;539.90;477.48;;;;;;;;;;5044374;28;20045;-76
2021/06/04 06:50:51;;;;;;;538.22;475.17;;;;;;;;;;5042371;28;20021;-76
2021/06/04 06:53:18;;;;;;;543.20;481.58;;;;;;;;;;5028036;28;20037;-76
2021/06/04 06:55:45;;;;;;;548.40;488.10;;;;;;;;;;5045049;28;20376;-75
2021/06/04 06:58:11;;;;;;;542.97;482.42;;;;;;;;;;5030994;28;20040;-77
2021/06/04 07:00:39;;;;;;;634.65;565.70;;;;;;;;;;5032461;28;20028;-75
2021/06/04 07:03:05;;;;;;;564.65;502.75;;;;;;;;;;5051488;28;20480;-75
2021/06/04 07:05:32;;;;;;;567.78;505.88;;;;;;;;;;5049739;28;20500;-76
2021/06/04 07:08:01;;;;;;;565.70;504.55;;;;;;;;;;5033322;28;20091;-75
2021/06/04 07:10:29;;;;;;;554.38;494.52;;;;;;;;;;5041540;28;20094;-75
2021/06/04 07:12:59;;;;;;;557.08;497.10;;;;;;;;;;5042817;28;20092;-75
2021/06/04 07:15:25;;;;;;;556.97;496.85;;;;;;;;;;5045688;28;20469;-76
2021/06/04 07:17:54;;;;;;;557.72;497.88;;;;;;;;;;5042519;28;20128;-76
2021/06/04 07:20:23;;;;;;;559.85;499.85;;;;;;;;;;5027185;28;20029;-75
2021/06/04 07:22:49;;;;;;;559.90;499.85;;;;;;;;;;5048602;28;20017;-75
2021/06/04 07:25:16;;;;;;;559.92;500.00;;;;;;;;;;5030330;28;20029;-74
2021/06/04 07:27:42;;;;;;;551.97;492.15;;;;;;;;;;5048625;28;20427;-75
2021/06/04 07:30:13;;;;;;;557.78;497.77;;;;;;;;;;5046153;28;20496;-74
2021/06/04 07:32:38;;;;;;;;;;;;;;;;;;5030224;28;20029;-74
2021/06/04 07:35:05;;;;;;;552.15;492.25;;;;;;;;;;5043511;28;19916;-75
2021/06/04 07:37:31;;;;;;;568.25;507.10;;;;;;;;;;5048199;28;20029;-74
2021/06/04 07:39:57;;;;;;;592.13;529.53;;;;;;;;;;5027124;28;20037;-74
2021/06/04 07:42:23;;;;;;;794.20;714.58;;;;;;;;;;5029659;28;20542;-75
2021/06/04 07:44:49;;;;;;;580.60;519.05;;;;;;;;;;5026987;28;20148;-75
2021/06/04 07:47:15;;;;;;;592.28;530.53;;;;;;;;;;5029286;28;20446;-75
2021/06/04 07:49:42;;;;;;;582.08;520.97;;;;;;;;;;5032005;28;20032;-76
2021/06/04 07:52:09;;;;;;;594.40;532.53;;;;;;;;;;5032371;28;20040;-75
2021/06/04 07:54:35;;;;;;;598.17;536.05;;;;;;;;;;5036649;28;20029;-75
2021/06/04 07:57:03;;;;;;;602.88;540.53;;;;;;;;;;5032433;28;20032;-75
2021/06/04 07:59:30;;;;;;;592.55;530.53;;;;;;;;;;5032416;28;20029;-75
2021/06/04 08:01:56;;;;;;;594.22;532.28;;;;;;;;;;5060723;28;20075;-75
2021/06/04 08:04:22;;;;;;;590.67;529.00;;;;;;;;;;5053145;28;20040;-75
2021/06/04 08:06:51;;;;;;;599.92;537.83;;;;;;;;;;5033783;28;20032;-75
2021/06/04 08:09:17;;;;;;;600.85;538.78;;;;;;;;;;5034463;28;20063;-76
2021/06/04 08:11:52;;;;;;;597.30;535.78;;;;;;;;;;5033555;28;20052;-76
2021/06/04 08:14:25;;;;;;;591.25;529.75;;;;;;;;;;5046208;28;20612;-75
2021/06/04 08:16:53;;;;;;;596.25;534.95;;;;;;;;;;5048405;28;20055;-76
2021/06/04 08:19:21;;;;;;;593.55;532.25;;;;;;;;;;5050039;28;20025;-76
2021/06/04 08:21:49;;;;;;;603.25;541.40;;;;;;;;;;5049691;28;20029;-77
2021/06/04 08:24:19;;;;;;;680.97;612.13;;;;;;;;;;5032726;28;20048;-77
2021/06/04 08:26:47;;;;;;;645.35;580.63;;;;;;;;;;5047182;28;20017;-77
2021/06/04 08:29:13;;;;;;;599.03;537.95;;;;;;;;;;5044418;28;20032;-78
2021/06/04 08:31:40;;;;;;;586.50;526.47;;;;;;;;;;5028499;28;20039;-75
2021/06/04 08:34:07;;;;;;;587.90;527.65;;;;;;;;;;5032653;28;20029;-75
2021/06/04 08:36:35;;;;;;;593.90;534.08;;;;;;;;;;5025140;28;20411;-76
2021/06/04 08:39:05;;;;;;;594.92;535.13;;;;;;;;;;5030253;28;20363;-75
2021/06/04 08:41:38;;;;;;;591.22;531.40;;;;;;;;;;5030577;28;20032;-77
2021/06/04 08:44:04;;;;;;;592.60;532.97;;;;;;;;;;5043857;28;20492;-75
2021/06/04 08:46:32;;;;;;;590.35;530.65;;;;;;;;;;5044984;28;20021;-80
2021/06/04 08:49:02;;;;;;;594.13;534.38;;;;;;;;;;5035083;28;20076;-77
2021/06/04 08:51:34;;;;;;;597.55;537.80;;;;;;;;;;5050282;28;20104;-75
2021/06/04 08:54:09;;;;;;;604.13;544.00;;;;;;;;;;5052254;28;20079;-76
2021/06/04 08:56:56;;;;;;;618.10;557.47;;;;;;;;;;5026945;28;20053;-79
2021/06/04 08:59:24;;;;;;;618.17;558.00;;;;;;;;;;5042553;28;20021;-77
2021/06/04 09:02:02;;;;;;;626.38;566.15;;;;;;;;;;5023601;28;20060;-76
2021/06/04 09:04:34;;;;;;;629.42;568.83;;;;;;;;;;5029076;28;20480;-77
2021/06/04 09:07:04;;;;;;;627.40;566.83;;;;;;;;;;5044703;28;20511;-78
2021/06/04 09:09:35;;;;;;;637.67;576.58;;;;;;;;;;5041660;28;20032;-78
2021/06/04 09:12:27;;;;;;;646.85;585.70;;;;;;;;;;5046883;28;20021;-78
2021/06/04 09:14:54;;;;;;;654.28;593.40;;;;;;;;;;5050338;28;20116;-78
2021/06/04 09:17:22;;;;;;;656.80;596.22;;;;;;;;;;5047709;28;20163;-78
2021/06/04 09:19:48;;;;;;;656.63;595.40;;;;;;;;;;5047708;28;20029;-78
2021/06/04 09:22:15;;;;;;;661.28;600.60;;;;;;;;;;5029734;28;20039;-78
2021/06/04 09:24:42;;;;;;;675.83;614.67;;;;;;;;;;5027501;28;20025;-78
2021/06/04 09:27:29;;;;;;;670.78;610.20;;;;;;;;;;5023224;28;20050;-78
2021/06/04 09:30:07;;;;;;;680.60;619.78;;;;;;;;;;5044305;28;20026;-77
2021/06/04 09:32:37;;;;;;;689.83;629.13;;;;;;;;;;5047297;28;20021;-77
2021/06/04 09:35:09;;;;;;;709.88;648.53;;;;;;;;;;5046998;28;20021;-78
2021/06/04 09:37:37;;;;;;;711.60;650.30;;;;;;;;;;5035118;28;20503;-78
2021/06/04 09:40:27;;;;;;;720.60;659.55;;;;;;;;;;5027954;28;20040;-79
2021/06/04 09:42:56;;;;;;;730.75;668.40;;;;;;;;;;5044421;28;20052;-77
2021/06/04 09:45:26;;;;;;;686.67;626.45;;;;;;;;;;5043376;28;20033;-78
2021/06/04 09:48:05;;;;;;;733.70;671.42;;;;;;;;;;5044573;28;20045;-77
2021/06/04 09:50:36;;;;;;;735.25;673.00;;;;;;;;;;5044364;28;20496;-77
2021/06/04 09:53:05;;;;;;;728.55;666.92;;;;;;;;;;5043175;28;20025;-78
2021/06/04 09:55:33;;;;;;;728.90;667.15;;;;;;;;;;5048450;28;20029;-77
2021/06/04 09:58:05;;;;;;;732.97;670.78;;;;;;;;;;5031328;28;20458;-78
2021/06/04 10:00:33;;;;;;;725.72;663.95;;;;;;;;;;5046804;28;20468;-77
2021/06/04 10:03:09;;;;;;;722.00;660.33;;;;;;;;;;5025820;28;20025;-77
2021/06/04 10:05:35;;;;;;;733.83;671.55;;;;;;;;;;5028916;28;20485;-77
2021/06/04 10:08:20;;;;;;;753.85;691.53;;;;;;;;;;5032348;28;20384;-77
2021/06/04 10:10:47;;;;;;;757.03;694.83;;;;;;;;;;5049481;28;20043;-77
2021/06/04 10:13:29;;;;;;;772.88;710.28;;;;;;;;;;5031236;28;20032;-78
2021/06/04 10:15:57;;;;;;;767.33;704.83;;;;;;;;;;5044072;28;20349;-77
2021/06/04 10:18:25;;;;;;;788.83;725.10;;;;;;;;;;5049509;28;20024;-77
2021/06/04 10:20:52;;;;;;;778.47;715.55;;;;;;;;;;5046506;28;20029;-77
2021/06/04 10:23:18;;;;;;;794.05;730.08;;;;;;;;;;5048039;28;20268;-77
2021/06/04 10:25:46;;;;;;;805.70;740.17;;;;;;;;;;5050924;28;20545;-78
2021/06/04 10:28:35;;;;;;;796.78;731.35;;;;;;;;;;5028905;28;20033;-78
2021/06/04 10:31:09;;;;;;;864.83;794.30;;;;;;;;;;5023085;28;20022;-77
2021/06/04 10:33:40;;;;;;;829.17;761.58;;;;;;;;;;5051587;28;20025;-78
2021/06/04 10:36:09;;;;;;;934.85;861.03;;;;;;;;;;5024378;28;20056;-78
2021/06/04 10:38:40;;;;;;;894.08;823.88;;;;;;;;;;5045945;28;20065;-78
2021/06/04 10:41:09;;;;;;;907.20;836.75;;;;;;;;;;5031161;28;20376;-78
2021/06/04 10:43:55;;;;;;;1011.17;934.60;;;;;;;;;;5046451;28;20025;-78
2021/06/04 10:46:21;;;;;;;944.90;873.47;;;;;;;;;;5045194;28;20121;-78
2021/06/04 10:49:10;;;;;;;993.20;918.50;;;;;;;;;;5045207;28;20104;-78
2021/06/04 10:51:56;;;;;;;1008.70;931.92;;;;;;;;;;5039365;28;20037;-77
2021/06/04 10:54:25;;;;;;;1133.75;999.90;;;;;;;;;;5045593;28;20029;-78
2021/06/04 10:56:57;;;;;;;993.33;916.10;;;;;;;;;;5025361;28;20432;-78
2021/06/04 10:59:36;;;;;;;1162.30;999.90;;;;;;;;;;5044268;28;20029;-78
2021/06/04 11:02:22;;;;;;;1080.88;995.10;;;;;;;;;;5042351;28;20102;-77
2021/06/04 11:05:07;;;;;;;1033.25;951.47;;;;;;;;;;5030356;28;20025;-78
2021/06/04 11:07:52;;;;;;;1067.82;983.13;;;;;;;;;;5051435;28;20033;-77
2021/06/04 11:10:27;;;;;;;1032.85;951.13;;;;;;;;;;5032243;28;20029;-77
2021/06/04 11:13:11;;;;;;;1103.45;999.90;;;;;;;;;;5030738;28;20147;-78
2021/06/04 11:15:37;;;;;;;1063.47;978.22;;;;;;;;;;5045142;28;20115;-78
2021/06/04 11:18:10;;;;;;;1109.55;999.90;;;;;;;;;;5021453;28;20579;-78
2021/06/04 11:20:39;;;;;;;1069.20;983.08;;;;;;;;;;5027628;28;20079;-77
2021/06/04 11:23:15;;;;;;;1068.90;982.92;;;;;;;;;;5028802;28;20025;-77
2021/06/04 11:25:51;;;;;;;989.05;909.05;;;;;;;;;;5023219;28;20480;-77
2021/06/04 11:28:33;;;;;;;1048.63;963.80;;;;;;;;;;5026171;28;20033;-77
2021/06/04 11:31:00;;;;;;;1170.65;999.90;;;;;;;;;;5040703;28;20036;-77
2021/06/04 11:33:28;;;;;;;996.88;915.03;;;;;;;;;;5027709;28;20033;-77
2021/06/04 11:36:11;;;;;;;1007.85;924.50;;;;;;;;;;5046732;28;20021;-77
2021/06/04 11:38:46;;;;;;;996.67;913.58;;;;;;;;;;5041820;28;20685;-78
2021/06/04 11:41:18;;;;;;;928.92;850.00;;;;;;;;;;5029839;28;20055;-77
2021/06/04 11:43:46;;;;;;;806.38;736.35;;;;;;;;;;5025363;28;20553;-77
2021/06/04 11:46:15;;;;;;;971.90;890.05;;;;;;;;;;5028119;28;20036;-77
2021/06/04 11:48:43;;;;;;;1080.88;991.30;;;;;;;;;;5039921;28;20029;-77
2021/06/04 11:51:21;;;;;;;1166.47;999.90;;;;;;;;;;5026294;28;20043;-77
2021/06/04 11:53:47;;;;;;;1047.57;961.60;;;;;;;;;;5020778;28;20025;-78
2021/06/04 11:56:33;;;;;;;1160.38;999.90;;;;;;;;;;5045267;28;20037;-77
2021/06/04 11:58:59;;;;;;;1047.47;962.63;;;;;;;;;;5041874;28;20427;-77
2021/06/04 12:01:24;;;;;;;1130.40;999.90;;;;;;;;;;5047421;28;20033;-77
2021/06/04 12:04:00;;;;;;;1136.20;999.90;;;;;;;;;;5046077;28;20033;-77
2021/06/04 12:06:28;;;;;;;1153.95;999.90;;;;;;;;;;5043666;28;20040;-78
2021/06/04 12:08:58;;;;;;;1037.72;953.58;;;;;;;;;;5028661;28;20397;-77
2021/06/04 12:11:32;;;;;;;986.72;906.95;;;;;;;;;;5026506;28;20053;-78
2021/06/04 12:14:04;;;;;;;1115.00;999.90;;;;;;;;;;5029166;28;20020;-76
2021/06/04 12:16:34;;;;;;;1077.30;990.28;;;;;;;;;;5041236;28;20045;-78
2021/06/04 12:19:06;;;;;;;1025.18;942.42;;;;;;;;;;5025499;28;20025;-78
2021/06/04 12:21:39;;;;;;;982.83;903.50;;;;;;;;;;5039195;28;20075;-78
2021/06/04 12:24:05;;;;;;;924.30;848.17;;;;;;;;;;5029407;28;20021;-77
2021/06/04 12:26:37;;;;;;;972.72;892.50;;;;;;;;;;5045371;28;20037;-77
2021/06/04 12:29:21;;;;;;;884.13;809.47;;;;;;;;;;5024606;28;20127;-77
2021/06/04 12:31:53;;;;;;;989.88;907.83;;;;;;;;;;5044006;28;20021;-77
2021/06/04 12:34:40;;;;;;;963.22;884.35;;;;;;;;;;5029418;28;20025;-78
2021/06/04 12:37:23;;;;;;;904.45;831.03;;;;;;;;;;5022559;28;20021;-76
2021/06/04 12:39:54;;;;;;;1084.72;987.20;;;;;;;;;;5045102;28;20047;-77
2021/06/04 12:42:34;;;;;;;1061.55;979.88;;;;;;;;;;5047338;28;20029;-79
2021/06/04 12:45:00;;;;;;;882.28;813.45;;;;;;;;;;5034719;28;20030;-77
2021/06/04 12:47:29;;;;;;;1100.00;999.90;;;;;;;;;;5032396;28;20055;-78
2021/06/04 12:50:06;;;;;;;909.92;840.15;;;;;;;;;;5048126;28;20107;-79
2021/06/04 12:52:38;;;;;;;940.08;868.42;;;;;;;;;;5051982;28;20025;-79
2021/06/04 12:55:15;;;;;;;910.05;839.88;;;;;;;;;;5039257;28;20119;-79
2021/06/04 12:58:09;;;;;;;881.25;812.45;;;;;;;;;;5030056;28;20021;-77
2021/06/04 13:00:35;;;;;;;895.30;825.42;;;;;;;;;;5029056;28;20124;-78
2021/06/04 13:03:09;;;;;;;926.42;854.45;;;;;;;;;;5044934;28;20503;-77
2021/06/04 13:05:35;;;;;;;921.42;849.05;;;;;;;;;;5038111;28;20512;-77
2021/06/04 13:08:06;;;;;;;837.55;770.25;;;;;;;;;;5036312;28;20033;-75
2021/06/04 13:10:36;;;;;;;839.42;771.38;;;;;;;;;;5047437;28;20021;-75
2021/06/04 13:13:02;;;;;;;;;;;;;;;;;;5047508;28;20513;-76
2021/06/04 13:15:35;;;;;;;929.42;853.35;;;;;;;;;;5047433;28;19905;-76
2021/06/04 13:18:03;;;;;;;827.33;758.60;;;;;;;;;;5027003;28;20028;-77
2021/06/04 13:20:31;;;;;;;827.83;759.15;;;;;;;;;;5027541;28;20480;-76
2021/06/04 13:23:12;;;;;;;860.85;789.58;;;;;;;;;;5041868;28;20088;-76
2021/06/04 13:25:41;;;;;;;812.10;743.67;;;;;;;;;;5030174;28;20022;-76
2021/06/04 13:28:19;;;;;;;806.95;738.53;;;;;;;;;;5025485;28;20424;-76
2021/06/04 13:30:48;;;;;;;804.75;735.95;;;;;;;;;;5025786;28;20033;-75
2021/06/04 13:33:20;;;;;;;851.58;779.92;;;;;;;;;;5035048;28;20025;-76
2021/06/04 13:35:50;;;;;;;901.03;826.80;;;;;;;;;;5025582;28;20017;-77
2021/06/04 13:38:16;;;;;;;893.03;820.72;;;;;;;;;;5044930;28;20045;-76
2021/06/04 13:40:43;;;;;;;968.60;892.65;;;;;;;;;;5028490;28;20362;-76
2021/06/04 13:43:15;;;;;;;932.88;859.47;;;;;;;;;;5046159;28;20033;-76
2021/06/04 13:45:45;;;;;;;911.40;839.83;;;;;;;;;;5048697;28;20051;-75
2021/06/04 13:48:14;;;;;;;914.15;842.63;;;;;;;;;;5045437;28;20695;-76
2021/06/04 13:50:53;;;;;;;893.92;824.15;;;;;;;;;;5025148;28;20028;-76
2021/06/04 13:53:25;;;;;;;887.92;818.50;;;;;;;;;;5032444;28;20413;-77
2021/06/04 13:56:14;;;;;;;857.05;788.97;;;;;;;;;;5044072;28;20064;-76
2021/06/04 13:58:40;;;;;;;881.13;811.88;;;;;;;;;;5006873;28;20043;-75
2021/06/04 14:01:23;;;;;;;888.05;818.72;;;;;;;;;;5032188;28;20032;-76
2021/06/04 14:03:54;;;;;;;889.20;820.00;;;;;;;;;;5032407;28;20072;-78
2021/06/04 14:06:20;;;;;;;837.83;771.65;;;;;;;;;;5026442;28;20037;-80
2021/06/04 14:09:00;;;;;;;854.60;787.35;;;;;;;;;;5051970;28;20388;-77
2021/06/04 14:11:27;;;;;;;829.60;763.80;;;;;;;;;;5030018;28;20095;-74
2021/06/04 14:14:03;;;;;;;824.70;758.33;;;;;;;;;;5051561;28;20548;-78
2021/06/04 14:16:50;;;;;;;828.95;762.72;;;;;;;;;;5053892;28;20029;-77
2021/06/04 14:19:25;;;;;;;827.55;761.20;;;;;;;;;;5043705;28;20159;-75